sensor_id;sensor_type;location;lat;lon;timestamp;P1;durP1;ratioP1;P2;durP2;ratioP2
3843;SDS011;1937;51.444;6.484;2022-10-15T00:01:16;24.80;;;15.10;;
3843;SDS011;1937;51.444;6.484;2022-10-15T00:03:45;25.40;;;14.87;;
3843;SDS011;1937;51.444;6.484;2022-10-15T00:06:15;22.87;;;15.13;;
3843;SDS011;1937;51.444;6.484;2022-10-15T00:08:46;28.60;;;15.33;;
3843;SDS011;1937;51.444;6.484;2022-10-15T00:11:17;27.40;;;14.60;;
3843;SDS011;1937;51.444;6.484;2022-10-15T00:13:47;26.37;;;15.77;;
3843;SDS011;1937;51.444;6.484;2022-10-15T00:16:18;23.80;;;15.30;;
3843;SDS011;1937;51.444;6.484;2022-10-15T00:18:48;30.17;;;16.20;;
3843;SDS011;1937;51.444;6.484;2022-10-15T00:21:20;29.07;;;16.77;;
3843;SDS011;1937;51.444;6.484;2022-10-15T00:23:50;26.77;;;16.93;;
3843;SDS011;1937;51.444;6.484;2022-10-15T00:26:19;28.10;;;15.53;;
3843;SDS011;1937;51.444;6.484;2022-10-15T00:28:50;27.70;;;17.10;;
3843;SDS011;1937;51.444;6.484;2022-10-15T00:31:21;30.73;;;17.83;;
3843;SDS011;1937;51.444;6.484;2022-10-15T00:33:51;27.50;;;16.97;;
3843;SDS011;1937;51.444;6.484;2022-10-15T00:36:21;28.30;;;16.03;;
3843;SDS011;1937;51.444;6.484;2022-10-15T00:38:52;30.40;;;15.90;;
3843;SDS011;1937;51.444;6.484;2022-10-15T00:41:21;26.00;;;15.63;;
3843;SDS011;1937;51.444;6.484;2022-10-15T00:43:54;18.67;;;13.40;;
3843;SDS011;1937;51.444;6.484;2022-10-15T00:46:24;28.53;;;16.50;;
3843;SDS011;1937;51.444;6.484;2022-10-15T00:48:56;18.83;;;13.83;;
3843;SDS011;1937;51.444;6.484;2022-10-15T00:51:30;22.27;;;14.20;;
3843;SDS011;1937;51.444;6.484;2022-10-15T00:54:06;25.30;;;13.90;;
3843;SDS011;1937;51.444;6.484;2022-10-15T00:56:36;22.23;;;14.30;;
3843;SDS011;1937;51.444;6.484;2022-10-15T00:59:05;25.00;;;15.37;;
3843;SDS011;1937;51.444;6.484;2022-10-15T01:01:34;19.20;;;13.57;;
3843;SDS011;1937;51.444;6.484;2022-10-15T01:04:03;21.80;;;13.10;;
3843;SDS011;1937;51.444;6.484;2022-10-15T01:06:33;21.43;;;12.37;;
3843;SDS011;1937;51.444;6.484;2022-10-15T01:09:02;16.70;;;11.40;;
3843;SDS011;1937;51.444;6.484;2022-10-15T01:11:35;15.43;;;10.10;;
3843;SDS011;1937;51.444;6.484;2022-10-15T01:14:11;18.20;;;11.40;;
3843;SDS011;1937;51.444;6.484;2022-10-15T01:16:53;20.00;;;13.00;;
3843;SDS011;1937;51.444;6.484;2022-10-15T01:19:29;23.40;;;15.23;;
3843;SDS011;1937;51.444;6.484;2022-10-15T01:22:13;30.43;;;15.83;;
3843;SDS011;1937;51.444;6.484;2022-10-15T01:24:53;33.57;;;17.80;;
3843;SDS011;1937;51.444;6.484;2022-10-15T01:27:30;29.47;;;17.13;;
3843;SDS011;1937;51.444;6.484;2022-10-15T01:33:07;33.37;;;20.33;;
3843;SDS011;1937;51.444;6.484;2022-10-15T01:35:47;29.77;;;17.83;;
3843;SDS011;1937;51.444;6.484;2022-10-15T01:38:21;33.33;;;19.67;;
3843;SDS011;1937;51.444;6.484;2022-10-15T01:40:59;31.00;;;19.17;;
3843;SDS011;1937;51.444;6.484;2022-10-15T01:43:34;32.30;;;20.00;;
3843;SDS011;1937;51.444;6.484;2022-10-15T01:46:09;31.20;;;18.93;;
3843;SDS011;1937;51.444;6.484;2022-10-15T01:48:42;36.53;;;19.53;;
3843;SDS011;1937;51.444;6.484;2022-10-15T01:51:11;36.73;;;19.90;;
3843;SDS011;1937;51.444;6.484;2022-10-15T01:53:42;34.20;;;19.50;;
3843;SDS011;1937;51.444;6.484;2022-10-15T01:56:14;38.17;;;19.73;;
3843;SDS011;1937;51.444;6.484;2022-10-15T01:58:48;30.97;;;20.03;;
3843;SDS011;1937;51.444;6.484;2022-10-15T02:01:19;36.13;;;21.20;;
3843;SDS011;1937;51.444;6.484;2022-10-15T02:03:47;31.40;;;18.67;;
3843;SDS011;1937;51.444;6.484;2022-10-15T02:06:17;30.83;;;18.97;;
3843;SDS011;1937;51.444;6.484;2022-10-15T02:08:52;28.60;;;17.50;;
3843;SDS011;1937;51.444;6.484;2022-10-15T02:11:25;38.37;;;21.70;;
3843;SDS011;1937;51.444;6.484;2022-10-15T02:13:56;37.87;;;21.17;;
3843;SDS011;1937;51.444;6.484;2022-10-15T02:16:28;31.90;;;20.73;;
3843;SDS011;1937;51.444;6.484;2022-10-15T02:19:04;29.97;;;20.13;;
3843;SDS011;1937;51.444;6.484;2022-10-15T02:21:37;36.43;;;20.17;;
3843;SDS011;1937;51.444;6.484;2022-10-15T02:24:07;38.00;;;19.90;;
3843;SDS011;1937;51.444;6.484;2022-10-15T02:26:36;44.93;;;23.03;;
3843;SDS011;1937;51.444;6.484;2022-10-15T02:29:07;36.30;;;20.50;;
3843;SDS011;1937;51.444;6.484;2022-10-15T02:31:39;37.47;;;21.97;;
3843;SDS011;1937;51.444;6.484;2022-10-15T02:34:09;46.07;;;24.03;;
3843;SDS011;1937;51.444;6.484;2022-10-15T02:36:39;35.77;;;20.20;;
3843;SDS011;1937;51.444;6.484;2022-10-15T02:39:08;40.93;;;23.63;;
3843;SDS011;1937;51.444;6.484;2022-10-15T02:41:37;38.23;;;21.90;;
3843;SDS011;1937;51.444;6.484;2022-10-15T02:44:04;36.47;;;22.30;;
3843;SDS011;1937;51.444;6.484;2022-10-15T02:46:31;39.93;;;22.00;;
3843;SDS011;1937;51.444;6.484;2022-10-15T02:48:59;45.50;;;24.57;;
3843;SDS011;1937;51.444;6.484;2022-10-15T02:51:26;41.20;;;23.90;;
3843;SDS011;1937;51.444;6.484;2022-10-15T02:53:52;35.93;;;21.83;;
3843;SDS011;1937;51.444;6.484;2022-10-15T02:56:19;40.03;;;22.73;;
3843;SDS011;1937;51.444;6.484;2022-10-15T02:58:45;35.97;;;22.00;;
3843;SDS011;1937;51.444;6.484;2022-10-15T03:01:12;41.07;;;23.23;;
3843;SDS011;1937;51.444;6.484;2022-10-15T03:03:38;34.63;;;22.90;;
3843;SDS011;1937;51.444;6.484;2022-10-15T03:06:06;40.50;;;21.83;;
3843;SDS011;1937;51.444;6.484;2022-10-15T03:08:33;40.27;;;23.50;;
3843;SDS011;1937;51.444;6.484;2022-10-15T03:11:00;40.43;;;22.60;;
3843;SDS011;1937;51.444;6.484;2022-10-15T03:13:27;43.33;;;22.40;;
3843;SDS011;1937;51.444;6.484;2022-10-15T03:15:54;37.03;;;22.10;;
3843;SDS011;1937;51.444;6.484;2022-10-15T03:18:21;38.70;;;20.80;;
3843;SDS011;1937;51.444;6.484;2022-10-15T03:20:51;35.10;;;20.67;;
3843;SDS011;1937;51.444;6.484;2022-10-15T03:23:20;33.87;;;21.50;;
3843;SDS011;1937;51.444;6.484;2022-10-15T03:25:47;30.30;;;18.37;;
3843;SDS011;1937;51.444;6.484;2022-10-15T03:28:13;33.23;;;19.47;;
3843;SDS011;1937;51.444;6.484;2022-10-15T03:30:40;35.07;;;19.60;;
3843;SDS011;1937;51.444;6.484;2022-10-15T03:33:07;31.70;;;20.10;;
3843;SDS011;1937;51.444;6.484;2022-10-15T03:35:34;38.70;;;19.80;;
3843;SDS011;1937;51.444;6.484;2022-10-15T03:38:01;34.90;;;20.30;;
3843;SDS011;1937;51.444;6.484;2022-10-15T03:40:29;34.00;;;19.60;;
3843;SDS011;1937;51.444;6.484;2022-10-15T03:42:55;36.27;;;20.63;;
3843;SDS011;1937;51.444;6.484;2022-10-15T03:45:22;37.20;;;20.50;;
3843;SDS011;1937;51.444;6.484;2022-10-15T03:47:49;46.63;;;21.60;;
3843;SDS011;1937;51.444;6.484;2022-10-15T03:50:16;34.13;;;21.37;;
3843;SDS011;1937;51.444;6.484;2022-10-15T03:52:43;32.17;;;20.20;;
3843;SDS011;1937;51.444;6.484;2022-10-15T03:55:09;33.40;;;21.00;;
3843;SDS011;1937;51.444;6.484;2022-10-15T03:57:37;30.60;;;19.60;;
3843;SDS011;1937;51.444;6.484;2022-10-15T04:00:06;32.83;;;20.43;;
3843;SDS011;1937;51.444;6.484;2022-10-15T04:02:34;30.47;;;19.40;;
3843;SDS011;1937;51.444;6.484;2022-10-15T04:05:00;32.93;;;19.10;;
3843;SDS011;1937;51.444;6.484;2022-10-15T04:07:27;31.37;;;19.37;;
3843;SDS011;1937;51.444;6.484;2022-10-15T04:09:54;32.53;;;18.23;;
3843;SDS011;1937;51.444;6.484;2022-10-15T04:12:20;29.00;;;18.17;;
3843;SDS011;1937;51.444;6.484;2022-10-15T04:14:48;23.80;;;17.90;;
3843;SDS011;1937;51.444;6.484;2022-10-15T04:17:15;31.27;;;19.30;;
3843;SDS011;1937;51.444;6.484;2022-10-15T04:19:41;32.60;;;18.27;;
3843;SDS011;1937;51.444;6.484;2022-10-15T04:22:08;34.47;;;17.07;;
3843;SDS011;1937;51.444;6.484;2022-10-15T04:24:35;31.57;;;17.93;;
3843;SDS011;1937;51.444;6.484;2022-10-15T04:27:01;30.10;;;18.50;;
3843;SDS011;1937;51.444;6.484;2022-10-15T04:29:28;29.60;;;18.53;;
3843;SDS011;1937;51.444;6.484;2022-10-15T04:31:55;35.40;;;19.63;;
3843;SDS011;1937;51.444;6.484;2022-10-15T04:34:22;31.17;;;17.17;;
3843;SDS011;1937;51.444;6.484;2022-10-15T04:36:49;34.67;;;18.67;;
3843;SDS011;1937;51.444;6.484;2022-10-15T04:39:15;34.33;;;19.10;;
3843;SDS011;1937;51.444;6.484;2022-10-15T04:41:42;29.47;;;18.23;;
3843;SDS011;1937;51.444;6.484;2022-10-15T04:44:08;35.60;;;17.93;;
3843;SDS011;1937;51.444;6.484;2022-10-15T04:46:35;27.50;;;16.90;;
3843;SDS011;1937;51.444;6.484;2022-10-15T04:49:03;31.97;;;19.40;;
3843;SDS011;1937;51.444;6.484;2022-10-15T04:51:29;27.60;;;18.17;;
3843;SDS011;1937;51.444;6.484;2022-10-15T04:53:56;34.43;;;17.80;;
3843;SDS011;1937;51.444;6.484;2022-10-15T04:56:23;31.77;;;17.50;;
3843;SDS011;1937;51.444;6.484;2022-10-15T04:58:50;26.83;;;17.33;;
3843;SDS011;1937;51.444;6.484;2022-10-15T05:01:17;26.30;;;17.43;;
3843;SDS011;1937;51.444;6.484;2022-10-15T05:03:46;27.80;;;17.90;;
3843;SDS011;1937;51.444;6.484;2022-10-15T05:06:16;37.00;;;18.50;;
3843;SDS011;1937;51.444;6.484;2022-10-15T05:08:44;29.30;;;16.90;;
3843;SDS011;1937;51.444;6.484;2022-10-15T05:11:12;32.73;;;19.10;;
3843;SDS011;1937;51.444;6.484;2022-10-15T05:13:40;27.87;;;17.10;;
3843;SDS011;1937;51.444;6.484;2022-10-15T05:16:07;35.27;;;18.90;;
3843;SDS011;1937;51.444;6.484;2022-10-15T05:18:36;25.27;;;17.10;;
3843;SDS011;1937;51.444;6.484;2022-10-15T05:21:03;27.67;;;18.27;;
3843;SDS011;1937;51.444;6.484;2022-10-15T05:23:31;31.67;;;19.80;;
3843;SDS011;1937;51.444;6.484;2022-10-15T05:25:58;28.27;;;20.20;;
3843;SDS011;1937;51.444;6.484;2022-10-15T05:28:24;32.03;;;20.50;;
3843;SDS011;1937;51.444;6.484;2022-10-15T05:30:51;37.30;;;20.23;;
3843;SDS011;1937;51.444;6.484;2022-10-15T05:33:18;35.90;;;18.50;;
3843;SDS011;1937;51.444;6.484;2022-10-15T05:35:44;34.67;;;18.03;;
3843;SDS011;1937;51.444;6.484;2022-10-15T05:38:11;32.43;;;21.97;;
3843;SDS011;1937;51.444;6.484;2022-10-15T05:40:39;34.43;;;19.50;;
3843;SDS011;1937;51.444;6.484;2022-10-15T05:43:05;31.03;;;19.70;;
3843;SDS011;1937;51.444;6.484;2022-10-15T05:45:32;30.30;;;20.23;;
3843;SDS011;1937;51.444;6.484;2022-10-15T05:47:58;33.77;;;19.67;;
3843;SDS011;1937;51.444;6.484;2022-10-15T05:50:25;40.63;;;19.00;;
3843;SDS011;1937;51.444;6.484;2022-10-15T05:52:53;38.63;;;20.67;;
3843;SDS011;1937;51.444;6.484;2022-10-15T05:55:22;35.73;;;18.40;;
3843;SDS011;1937;51.444;6.484;2022-10-15T05:57:50;29.77;;;17.50;;
3843;SDS011;1937;51.444;6.484;2022-10-15T06:00:17;36.50;;;19.07;;
3843;SDS011;1937;51.444;6.484;2022-10-15T06:02:43;34.77;;;19.17;;
3843;SDS011;1937;51.444;6.484;2022-10-15T06:05:10;35.93;;;18.90;;
3843;SDS011;1937;51.444;6.484;2022-10-15T06:07:36;37.73;;;19.97;;
3843;SDS011;1937;51.444;6.484;2022-10-15T06:10:03;43.27;;;20.67;;
3843;SDS011;1937;51.444;6.484;2022-10-15T06:12:30;33.67;;;19.83;;
3843;SDS011;1937;51.444;6.484;2022-10-15T06:14:58;39.67;;;22.20;;
3843;SDS011;1937;51.444;6.484;2022-10-15T06:17:25;42.40;;;22.87;;
3843;SDS011;1937;51.444;6.484;2022-10-15T06:19:51;42.47;;;19.87;;
3843;SDS011;1937;51.444;6.484;2022-10-15T06:22:18;42.73;;;20.57;;
3843;SDS011;1937;51.444;6.484;2022-10-15T06:24:44;46.50;;;21.03;;
3843;SDS011;1937;51.444;6.484;2022-10-15T06:27:11;35.83;;;20.50;;
3843;SDS011;1937;51.444;6.484;2022-10-15T06:29:37;38.03;;;20.70;;
3843;SDS011;1937;51.444;6.484;2022-10-15T06:32:08;46.77;;;20.87;;
3843;SDS011;1937;51.444;6.484;2022-10-15T06:34:36;36.63;;;19.77;;
3843;SDS011;1937;51.444;6.484;2022-10-15T06:37:02;44.83;;;20.70;;
3843;SDS011;1937;51.444;6.484;2022-10-15T06:39:29;39.00;;;20.67;;
3843;SDS011;1937;51.444;6.484;2022-10-15T06:41:55;36.70;;;18.43;;
3843;SDS011;1937;51.444;6.484;2022-10-15T06:44:22;44.13;;;20.17;;
3843;SDS011;1937;51.444;6.484;2022-10-15T06:46:48;40.97;;;21.30;;
3843;SDS011;1937;51.444;6.484;2022-10-15T06:49:16;32.93;;;17.50;;
3843;SDS011;1937;51.444;6.484;2022-10-15T06:51:43;33.60;;;17.50;;
3843;SDS011;1937;51.444;6.484;2022-10-15T06:54:09;38.03;;;20.87;;
3843;SDS011;1937;51.444;6.484;2022-10-15T06:56:36;36.80;;;22.30;;
3843;SDS011;1937;51.444;6.484;2022-10-15T06:59:04;38.43;;;22.13;;
3843;SDS011;1937;51.444;6.484;2022-10-15T07:01:30;47.57;;;30.63;;
3843;SDS011;1937;51.444;6.484;2022-10-15T07:03:57;44.57;;;25.63;;
3843;SDS011;1937;51.444;6.484;2022-10-15T07:06:25;34.17;;;18.80;;
3843;SDS011;1937;51.444;6.484;2022-10-15T07:08:51;31.57;;;18.93;;
3843;SDS011;1937;51.444;6.484;2022-10-15T07:11:18;29.20;;;18.00;;
3843;SDS011;1937;51.444;6.484;2022-10-15T07:13:44;34.10;;;17.47;;
3843;SDS011;1937;51.444;6.484;2022-10-15T07:16:11;30.77;;;17.03;;
3843;SDS011;1937;51.444;6.484;2022-10-15T07:18:38;29.87;;;16.70;;
3843;SDS011;1937;51.444;6.484;2022-10-15T07:21:05;33.27;;;18.77;;
3843;SDS011;1937;51.444;6.484;2022-10-15T07:23:34;31.00;;;16.77;;
3843;SDS011;1937;51.444;6.484;2022-10-15T07:26:01;31.53;;;17.50;;
3843;SDS011;1937;51.444;6.484;2022-10-15T07:28:27;28.77;;;15.07;;
3843;SDS011;1937;51.444;6.484;2022-10-15T07:30:58;28.77;;;17.13;;
3843;SDS011;1937;51.444;6.484;2022-10-15T07:33:25;31.00;;;17.47;;
3843;SDS011;1937;51.444;6.484;2022-10-15T07:35:52;37.37;;;17.80;;
3843;SDS011;1937;51.444;6.484;2022-10-15T07:38:18;37.40;;;18.67;;
3843;SDS011;1937;51.444;6.484;2022-10-15T07:40:46;29.27;;;17.80;;
3843;SDS011;1937;51.444;6.484;2022-10-15T07:43:13;40.27;;;19.47;;
3843;SDS011;1937;51.444;6.484;2022-10-15T07:45:40;37.60;;;19.83;;
3843;SDS011;1937;51.444;6.484;2022-10-15T07:48:12;33.23;;;18.30;;
3843;SDS011;1937;51.444;6.484;2022-10-15T07:50:38;33.93;;;17.80;;
3843;SDS011;1937;51.444;6.484;2022-10-15T07:53:05;40.13;;;20.20;;
3843;SDS011;1937;51.444;6.484;2022-10-15T07:55:33;41.77;;;20.20;;
3843;SDS011;1937;51.444;6.484;2022-10-15T07:58:03;59.50;;;21.93;;
3843;SDS011;1937;51.444;6.484;2022-10-15T08:00:32;39.03;;;19.90;;
3843;SDS011;1937;51.444;6.484;2022-10-15T08:03:01;33.63;;;18.10;;
3843;SDS011;1937;51.444;6.484;2022-10-15T08:05:30;35.17;;;19.00;;
3843;SDS011;1937;51.444;6.484;2022-10-15T08:07:58;34.23;;;18.97;;
3843;SDS011;1937;51.444;6.484;2022-10-15T08:10:27;42.77;;;19.50;;
3843;SDS011;1937;51.444;6.484;2022-10-15T08:12:56;39.53;;;19.70;;
3843;SDS011;1937;51.444;6.484;2022-10-15T08:15:25;32.57;;;16.33;;
3843;SDS011;1937;51.444;6.484;2022-10-15T08:17:53;32.90;;;15.43;;
3843;SDS011;1937;51.444;6.484;2022-10-15T08:20:23;30.90;;;15.83;;
3843;SDS011;1937;51.444;6.484;2022-10-15T08:22:53;27.67;;;14.97;;
3843;SDS011;1937;51.444;6.484;2022-10-15T08:25:21;22.30;;;14.13;;
3843;SDS011;1937;51.444;6.484;2022-10-15T08:27:51;27.20;;;15.30;;
3843;SDS011;1937;51.444;6.484;2022-10-15T08:30:20;26.20;;;14.07;;
3843;SDS011;1937;51.444;6.484;2022-10-15T08:32:50;24.20;;;14.20;;
3843;SDS011;1937;51.444;6.484;2022-10-15T08:35:18;30.70;;;15.83;;
3843;SDS011;1937;51.444;6.484;2022-10-15T08:37:46;28.03;;;13.20;;
3843;SDS011;1937;51.444;6.484;2022-10-15T08:40:18;24.30;;;14.00;;
3843;SDS011;1937;51.444;6.484;2022-10-15T08:42:47;23.70;;;13.80;;
3843;SDS011;1937;51.444;6.484;2022-10-15T08:45:18;26.70;;;14.33;;
3843;SDS011;1937;51.444;6.484;2022-10-15T08:47:52;22.13;;;12.00;;
3843;SDS011;1937;51.444;6.484;2022-10-15T08:50:39;21.33;;;12.13;;
3843;SDS011;1937;51.444;6.484;2022-10-15T08:53:10;19.27;;;12.13;;
3843;SDS011;1937;51.444;6.484;2022-10-15T08:55:42;20.57;;;11.73;;
3843;SDS011;1937;51.444;6.484;2022-10-15T08:58:14;20.27;;;12.17;;
3843;SDS011;1937;51.444;6.484;2022-10-15T09:00:49;17.97;;;11.77;;
3843;SDS011;1937;51.444;6.484;2022-10-15T09:03:29;19.53;;;10.83;;
3843;SDS011;1937;51.444;6.484;2022-10-15T09:06:06;18.97;;;10.90;;
3843;SDS011;1937;51.444;6.484;2022-10-15T09:08:43;15.13;;;9.93;;
3843;SDS011;1937;51.444;6.484;2022-10-15T09:11:18;15.80;;;8.67;;
3843;SDS011;1937;51.444;6.484;2022-10-15T09:13:54;14.20;;;9.10;;
3843;SDS011;1937;51.444;6.484;2022-10-15T09:16:24;15.50;;;8.83;;
3843;SDS011;1937;51.444;6.484;2022-10-15T09:18:57;18.50;;;8.40;;
3843;SDS011;1937;51.444;6.484;2022-10-15T09:21:31;12.77;;;7.83;;
3843;SDS011;1937;51.444;6.484;2022-10-15T09:24:03;15.00;;;8.20;;
3843;SDS011;1937;51.444;6.484;2022-10-15T09:26:38;13.33;;;7.80;;
3843;SDS011;1937;51.444;6.484;2022-10-15T09:29:14;15.53;;;8.30;;
3843;SDS011;1937;51.444;6.484;2022-10-15T09:31:50;14.37;;;7.43;;
3843;SDS011;1937;51.444;6.484;2022-10-15T09:34:26;9.50;;;6.40;;
3843;SDS011;1937;51.444;6.484;2022-10-15T09:37:02;9.63;;;6.80;;
3843;SDS011;1937;51.444;6.484;2022-10-15T09:39:49;9.80;;;6.27;;
3843;SDS011;1937;51.444;6.484;2022-10-15T09:42:28;9.57;;;6.07;;
3843;SDS011;1937;51.444;6.484;2022-10-15T09:45:01;6.00;;;4.77;;
3843;SDS011;1937;51.444;6.484;2022-10-15T09:47:34;5.97;;;4.70;;
3843;SDS011;1937;51.444;6.484;2022-10-15T09:50:09;6.27;;;4.60;;
3843;SDS011;1937;51.444;6.484;2022-10-15T09:55:40;5.47;;;4.23;;
3843;SDS011;1937;51.444;6.484;2022-10-15T09:58:14;4.33;;;3.47;;
3843;SDS011;1937;51.444;6.484;2022-10-15T10:00:54;3.43;;;3.10;;
3843;SDS011;1937;51.444;6.484;2022-10-15T10:03:25;3.57;;;2.90;;
3843;SDS011;1937;51.444;6.484;2022-10-15T10:06:02;5.73;;;3.00;;
3843;SDS011;1937;51.444;6.484;2022-10-15T10:08:33;3.40;;;2.70;;
3843;SDS011;1937;51.444;6.484;2022-10-15T10:11:05;3.73;;;3.00;;
3843;SDS011;1937;51.444;6.484;2022-10-15T10:13:36;4.27;;;2.60;;
3843;SDS011;1937;51.444;6.484;2022-10-15T10:16:11;4.67;;;2.70;;
3843;SDS011;1937;51.444;6.484;2022-10-15T10:18:40;3.90;;;2.10;;
3843;SDS011;1937;51.444;6.484;2022-10-15T10:21:22;4.23;;;3.10;;
3843;SDS011;1937;51.444;6.484;2022-10-15T10:23:55;4.10;;;2.30;;
3843;SDS011;1937;51.444;6.484;2022-10-15T10:26:42;4.30;;;2.70;;
3843;SDS011;1937;51.444;6.484;2022-10-15T10:29:15;2.83;;;2.30;;
3843;SDS011;1937;51.444;6.484;2022-10-15T10:31:46;5.50;;;2.57;;
3843;SDS011;1937;51.444;6.484;2022-10-15T10:34:16;3.23;;;2.80;;
3843;SDS011;1937;51.444;6.484;2022-10-15T10:36:52;4.87;;;2.77;;
3843;SDS011;1937;51.444;6.484;2022-10-15T10:39:24;3.40;;;2.63;;
3843;SDS011;1937;51.444;6.484;2022-10-15T10:41:54;2.70;;;2.30;;
3843;SDS011;1937;51.444;6.484;2022-10-15T10:44:26;4.27;;;2.97;;
3843;SDS011;1937;51.444;6.484;2022-10-15T10:47:04;4.20;;;2.87;;
3843;SDS011;1937;51.444;6.484;2022-10-15T10:49:36;6.33;;;3.00;;
3843;SDS011;1937;51.444;6.484;2022-10-15T10:52:18;3.13;;;2.83;;
3843;SDS011;1937;51.444;6.484;2022-10-15T10:54:47;4.93;;;3.00;;
3843;SDS011;1937;51.444;6.484;2022-10-15T10:57:20;3.43;;;2.30;;
3843;SDS011;1937;51.444;6.484;2022-10-15T10:59:59;4.90;;;3.00;;
3843;SDS011;1937;51.444;6.484;2022-10-15T11:02:30;4.20;;;3.00;;
3843;SDS011;1937;51.444;6.484;2022-10-15T11:05:04;3.23;;;2.70;;
3843;SDS011;1937;51.444;6.484;2022-10-15T11:07:36;5.20;;;2.93;;
3843;SDS011;1937;51.444;6.484;2022-10-15T11:10:12;4.10;;;2.83;;
3843;SDS011;1937;51.444;6.484;2022-10-15T11:12:48;5.10;;;3.57;;
3843;SDS011;1937;51.444;6.484;2022-10-15T11:15:26;4.10;;;2.70;;
3843;SDS011;1937;51.444;6.484;2022-10-15T11:18:02;4.90;;;3.03;;
3843;SDS011;1937;51.444;6.484;2022-10-15T11:20:43;5.97;;;3.37;;
3843;SDS011;1937;51.444;6.484;2022-10-15T11:23:26;6.67;;;3.40;;
3843;SDS011;1937;51.444;6.484;2022-10-15T11:26:07;4.03;;;3.40;;
3843;SDS011;1937;51.444;6.484;2022-10-15T11:28:50;5.50;;;2.60;;
3843;SDS011;1937;51.444;6.484;2022-10-15T11:31:31;3.53;;;3.00;;
3843;SDS011;1937;51.444;6.484;2022-10-15T11:34:13;4.13;;;3.13;;
3843;SDS011;1937;51.444;6.484;2022-10-15T11:36:55;4.13;;;2.70;;
3843;SDS011;1937;51.444;6.484;2022-10-15T11:39:35;3.67;;;2.53;;
3843;SDS011;1937;51.444;6.484;2022-10-15T11:42:12;5.37;;;2.40;;
3843;SDS011;1937;51.444;6.484;2022-10-15T11:47:52;2.70;;;2.50;;
3843;SDS011;1937;51.444;6.484;2022-10-15T11:50:26;3.13;;;2.80;;
3843;SDS011;1937;51.444;6.484;2022-10-15T11:53:04;3.90;;;3.37;;
3843;SDS011;1937;51.444;6.484;2022-10-15T11:55:55;3.80;;;2.70;;
3843;SDS011;1937;51.444;6.484;2022-10-15T11:58:30;3.40;;;2.20;;
3843;SDS011;1937;51.444;6.484;2022-10-15T12:01:04;2.00;;;1.80;;
3843;SDS011;1937;51.444;6.484;2022-10-15T12:03:38;3.10;;;2.37;;
3843;SDS011;1937;51.444;6.484;2022-10-15T12:06:12;4.27;;;2.00;;
3843;SDS011;1937;51.444;6.484;2022-10-15T12:08:44;4.03;;;2.20;;
3843;SDS011;1937;51.444;6.484;2022-10-15T12:11:18;2.90;;;1.83;;
3843;SDS011;1937;51.444;6.484;2022-10-15T12:13:53;5.30;;;2.33;;
3843;SDS011;1937;51.444;6.484;2022-10-15T12:16:29;3.40;;;2.00;;
3843;SDS011;1937;51.444;6.484;2022-10-15T12:19:09;1.73;;;1.63;;
3843;SDS011;1937;51.444;6.484;2022-10-15T12:21:42;1.57;;;1.47;;
3843;SDS011;1937;51.444;6.484;2022-10-15T12:24:50;3.17;;;1.40;;
3843;SDS011;1937;51.444;6.484;2022-10-15T12:27:24;1.63;;;1.50;;
3843;SDS011;1937;51.444;6.484;2022-10-15T12:30:10;1.50;;;1.40;;
3843;SDS011;1937;51.444;6.484;2022-10-15T12:32:44;2.30;;;1.57;;
3843;SDS011;1937;51.444;6.484;2022-10-15T12:35:19;2.63;;;1.40;;
3843;SDS011;1937;51.444;6.484;2022-10-15T12:37:49;3.57;;;1.40;;
3843;SDS011;1937;51.444;6.484;2022-10-15T12:40:26;1.83;;;1.63;;
3843;SDS011;1937;51.444;6.484;2022-10-15T12:42:58;1.87;;;1.50;;
3843;SDS011;1937;51.444;6.484;2022-10-15T12:45:31;1.60;;;1.30;;
3843;SDS011;1937;51.444;6.484;2022-10-15T12:48:16;2.03;;;1.43;;
3843;SDS011;1937;51.444;6.484;2022-10-15T12:50:47;2.50;;;2.03;;
3843;SDS011;1937;51.444;6.484;2022-10-15T12:53:34;1.77;;;1.60;;
3843;SDS011;1937;51.444;6.484;2022-10-15T12:56:11;2.43;;;1.90;;
3843;SDS011;1937;51.444;6.484;2022-10-15T12:58:48;1.97;;;1.60;;
3843;SDS011;1937;51.444;6.484;2022-10-15T13:01:27;2.50;;;1.83;;
3843;SDS011;1937;51.444;6.484;2022-10-15T13:04:15;2.10;;;1.70;;
3843;SDS011;1937;51.444;6.484;2022-10-15T13:06:44;1.33;;;1.20;;
3843;SDS011;1937;51.444;6.484;2022-10-15T13:09:19;1.73;;;1.30;;
3843;SDS011;1937;51.444;6.484;2022-10-15T13:11:51;1.53;;;1.27;;
3843;SDS011;1937;51.444;6.484;2022-10-15T13:14:30;1.40;;;1.30;;
3843;SDS011;1937;51.444;6.484;2022-10-15T13:17:03;1.73;;;1.10;;
3843;SDS011;1937;51.444;6.484;2022-10-15T13:19:45;2.20;;;1.40;;
3843;SDS011;1937;51.444;6.484;2022-10-15T13:22:22;1.43;;;1.33;;
3843;SDS011;1937;51.444;6.484;2022-10-15T13:24:52;2.53;;;1.87;;
3843;SDS011;1937;51.444;6.484;2022-10-15T13:27:22;1.27;;;1.17;;
3843;SDS011;1937;51.444;6.484;2022-10-15T13:29:58;3.03;;;1.27;;
3843;SDS011;1937;51.444;6.484;2022-10-15T13:32:31;1.27;;;1.17;;
3843;SDS011;1937;51.444;6.484;2022-10-15T13:35:08;1.23;;;1.13;;
3843;SDS011;1937;51.444;6.484;2022-10-15T13:37:48;2.10;;;1.43;;
3843;SDS011;1937;51.444;6.484;2022-10-15T13:40:24;2.70;;;1.50;;
3843;SDS011;1937;51.444;6.484;2022-10-15T13:42:58;1.40;;;1.20;;
3843;SDS011;1937;51.444;6.484;2022-10-15T13:45:32;2.50;;;2.30;;
3843;SDS011;1937;51.444;6.484;2022-10-15T13:48:09;1.70;;;1.60;;
3843;SDS011;1937;51.444;6.484;2022-10-15T13:50:49;1.67;;;1.40;;
3843;SDS011;1937;51.444;6.484;2022-10-15T13:53:25;1.93;;;1.60;;
3843;SDS011;1937;51.444;6.484;2022-10-15T13:56:00;2.27;;;1.30;;
3843;SDS011;1937;51.444;6.484;2022-10-15T13:58:46;2.23;;;1.30;;
3843;SDS011;1937;51.444;6.484;2022-10-15T14:01:21;4.73;;;1.40;;
3843;SDS011;1937;51.444;6.484;2022-10-15T14:03:53;1.20;;;1.10;;
3843;SDS011;1937;51.444;6.484;2022-10-15T14:06:23;1.63;;;1.33;;
3843;SDS011;1937;51.444;6.484;2022-10-15T14:08:53;1.27;;;1.17;;
3843;SDS011;1937;51.444;6.484;2022-10-15T14:11:24;4.00;;;1.50;;
3843;SDS011;1937;51.444;6.484;2022-10-15T14:14:01;1.73;;;1.37;;
3843;SDS011;1937;51.444;6.484;2022-10-15T14:16:32;1.60;;;1.50;;
3843;SDS011;1937;51.444;6.484;2022-10-15T14:19:07;1.40;;;1.30;;
3843;SDS011;1937;51.444;6.484;2022-10-15T14:21:43;2.60;;;1.60;;
3843;SDS011;1937;51.444;6.484;2022-10-15T14:24:17;1.87;;;1.13;;
3843;SDS011;1937;51.444;6.484;2022-10-15T14:26:51;1.00;;;0.90;;
3843;SDS011;1937;51.444;6.484;2022-10-15T14:29:21;1.50;;;1.20;;
3843;SDS011;1937;51.444;6.484;2022-10-15T14:31:52;1.70;;;1.20;;
3843;SDS011;1937;51.444;6.484;2022-10-15T14:34:25;1.97;;;1.37;;
3843;SDS011;1937;51.444;6.484;2022-10-15T14:40:01;2.90;;;1.40;;
3843;SDS011;1937;51.444;6.484;2022-10-15T14:42:37;2.73;;;1.30;;
3843;SDS011;1937;51.444;6.484;2022-10-15T14:45:11;1.60;;;1.30;;
3843;SDS011;1937;51.444;6.484;2022-10-15T14:47:46;1.80;;;1.47;;
3843;SDS011;1937;51.444;6.484;2022-10-15T14:50:18;2.00;;;1.37;;
3843;SDS011;1937;51.444;6.484;2022-10-15T14:52:56;2.70;;;1.20;;
3843;SDS011;1937;51.444;6.484;2022-10-15T14:55:31;2.33;;;1.37;;
3843;SDS011;1937;51.444;6.484;2022-10-15T14:58:06;2.70;;;1.30;;
3843;SDS011;1937;51.444;6.484;2022-10-15T15:00:38;3.30;;;1.87;;
3843;SDS011;1937;51.444;6.484;2022-10-15T15:03:12;1.63;;;1.53;;
3843;SDS011;1937;51.444;6.484;2022-10-15T15:05:44;2.00;;;1.50;;
3843;SDS011;1937;51.444;6.484;2022-10-15T15:08:16;1.60;;;1.50;;
3843;SDS011;1937;51.444;6.484;2022-10-15T15:10:45;2.03;;;1.20;;
3843;SDS011;1937;51.444;6.484;2022-10-15T15:13:17;1.90;;;1.80;;
3843;SDS011;1937;51.444;6.484;2022-10-15T15:15:48;1.87;;;1.30;;
3843;SDS011;1937;51.444;6.484;2022-10-15T15:18:18;1.90;;;1.57;;
3843;SDS011;1937;51.444;6.484;2022-10-15T15:20:49;1.80;;;1.70;;
3843;SDS011;1937;51.444;6.484;2022-10-15T15:23:19;2.30;;;1.87;;
3843;SDS011;1937;51.444;6.484;2022-10-15T15:25:49;2.00;;;1.63;;
3843;SDS011;1937;51.444;6.484;2022-10-15T15:28:18;2.80;;;1.60;;
3843;SDS011;1937;51.444;6.484;2022-10-15T15:30:49;2.10;;;1.90;;
3843;SDS011;1937;51.444;6.484;2022-10-15T15:33:22;3.90;;;3.57;;
3843;SDS011;1937;51.444;6.484;2022-10-15T15:35:53;3.37;;;2.50;;